Disclaimer

Please do not use the information listed here in-flight or in-navigation, as they are not provided to us by the airports but are provided by volunteers, so they might be outdated.

Search


Regions


Airport information page

Radio informations:
Tower (TWR) - 122.8 MHz
RDO - 5790 MHz

Airport informations:
Latitude: 28° 41' 07.00" N
Longitude: 034° 03' 45.00" E
Elevation: 4368 feet - 1331 meters
Operating hours: From sunrise to sunset (SR-SS)
Operating agency: Civil government, landing fees and diplomatic clearance may be required
Timezone: UTC+2(+3DT) - Dates notified by NOTAM
Fuel: Unknown fuel type or whether there is any fuel.

Runway information:
17/35 - 6939 x 118 feet< - >2115 x 36 meters

Recent METARs:
HESC 152300Z 00000KT CAVOK 12/05 Q1023 NOSIG
HESC 152300Z 00000KT CAVOK 12/05 Q1023 NOSIG
HESC 152300Z 00000KT CAVOK 12/05 Q1023 NOSIG

Airport on the map: